sensor_id;sensor_type;location;lat;lon;timestamp;pressure;altitude;pressure_sealevel;temperature;humidity
52441;BME280;39611;46.062;8.950;2023-01-26T00:01:25;96602.88;;;2.73;91.43
52441;BME280;39611;46.062;8.950;2023-01-26T00:03:55;96598.00;;;2.77;91.21
52441;BME280;39611;46.062;8.950;2023-01-26T00:06:23;96598.38;;;2.80;91.57
52441;BME280;39611;46.062;8.950;2023-01-26T00:08:52;96597.66;;;2.73;92.18
52441;BME280;39611;46.062;8.950;2023-01-26T00:11:21;96594.81;;;2.75;91.91
52441;BME280;39611;46.062;8.950;2023-01-26T00:13:56;96597.34;;;2.81;92.21
52441;BME280;39611;46.062;8.950;2023-01-26T00:16:24;96593.72;;;2.82;92.27
52441;BME280;39611;46.062;8.950;2023-01-26T00:18:50;96585.19;;;2.75;92.26
52441;BME280;39611;46.062;8.950;2023-01-26T00:21:19;96590.41;;;2.75;92.57
52441;BME280;39611;46.062;8.950;2023-01-26T00:23:46;96582.72;;;2.80;92.42
52441;BME280;39611;46.062;8.950;2023-01-26T00:26:18;96578.56;;;2.91;91.51
52441;BME280;39611;46.062;8.950;2023-01-26T00:28:45;96580.13;;;2.92;91.71
52441;BME280;39611;46.062;8.950;2023-01-26T00:31:14;96577.63;;;2.86;92.48
52441;BME280;39611;46.062;8.950;2023-01-26T00:33:41;96570.78;;;2.84;93.04
52441;BME280;39611;46.062;8.950;2023-01-26T00:36:08;96573.97;;;2.87;92.47
52441;BME280;39611;46.062;8.950;2023-01-26T00:38:35;96576.88;;;2.97;91.84
52441;BME280;39611;46.062;8.950;2023-01-26T00:41:01;96565.16;;;2.99;92.63
52441;BME280;39611;46.062;8.950;2023-01-26T00:43:28;96563.00;;;2.96;92.73
52441;BME280;39611;46.062;8.950;2023-01-26T00:45:55;96556.75;;;2.97;92.31
52441;BME280;39611;46.062;8.950;2023-01-26T00:48:21;96561.25;;;2.90;92.79
52441;BME280;39611;46.062;8.950;2023-01-26T00:50:51;96559.88;;;2.88;92.91
52441;BME280;39611;46.062;8.950;2023-01-26T00:53:17;96558.09;;;2.88;92.57
52441;BME280;39611;46.062;8.950;2023-01-26T00:55:44;96557.53;;;2.98;92.15
52441;BME280;39611;46.062;8.950;2023-01-26T00:58:11;96554.47;;;3.01;92.07
52441;BME280;39611;46.062;8.950;2023-01-26T01:00:37;96560.06;;;3.04;92.37
52441;BME280;39611;46.062;8.950;2023-01-26T01:03:04;96557.47;;;3.04;93.23
52441;BME280;39611;46.062;8.950;2023-01-26T01:05:32;96559.16;;;2.99;93.60
52441;BME280;39611;46.062;8.950;2023-01-26T01:07:59;96553.47;;;3.02;93.33
52441;BME280;39611;46.062;8.950;2023-01-26T01:10:25;96558.25;;;3.05;92.95
52441;BME280;39611;46.062;8.950;2023-01-26T01:12:53;96560.88;;;3.05;93.29
52441;BME280;39611;46.062;8.950;2023-01-26T01:15:20;96558.38;;;3.10;93.44
52441;BME280;39611;46.062;8.950;2023-01-26T01:17:46;96558.03;;;3.06;93.79
52441;BME280;39611;46.062;8.950;2023-01-26T01:20:13;96560.88;;;3.05;94.09
52441;BME280;39611;46.062;8.950;2023-01-26T01:22:40;96556.56;;;3.11;93.70
52441;BME280;39611;46.062;8.950;2023-01-26T01:25:06;96555.97;;;3.09;94.07
52441;BME280;39611;46.062;8.950;2023-01-26T01:27:33;96555.78;;;3.10;94.03
52441;BME280;39611;46.062;8.950;2023-01-26T01:29:59;96553.94;;;3.11;94.07
52441;BME280;39611;46.062;8.950;2023-01-26T01:32:26;96545.06;;;3.00;94.83
52441;BME280;39611;46.062;8.950;2023-01-26T01:34:53;96548.13;;;3.09;94.51
52441;BME280;39611;46.062;8.950;2023-01-26T01:37:19;96537.34;;;3.05;95.13
52441;BME280;39611;46.062;8.950;2023-01-26T01:39:47;96541.13;;;3.09;94.62
52441;BME280;39611;46.062;8.950;2023-01-26T01:42:14;96540.16;;;3.03;95.15
52441;BME280;39611;46.062;8.950;2023-01-26T01:44:41;96539.06;;;3.11;95.01
52441;BME280;39611;46.062;8.950;2023-01-26T01:47:13;96538.06;;;3.12;95.00
52441;BME280;39611;46.062;8.950;2023-01-26T01:49:49;96540.09;;;3.10;95.16
52441;BME280;39611;46.062;8.950;2023-01-26T01:52:23;96527.69;;;3.05;95.56
52441;BME280;39611;46.062;8.950;2023-01-26T01:54:55;96534.72;;;3.05;95.44
52441;BME280;39611;46.062;8.950;2023-01-26T01:57:31;96531.53;;;3.03;95.91
52441;BME280;39611;46.062;8.950;2023-01-26T02:00:12;96534.28;;;3.08;96.08
52441;BME280;39611;46.062;8.950;2023-01-26T02:02:40;96528.84;;;3.10;95.32
52441;BME280;39611;46.062;8.950;2023-01-26T02:05:16;96533.28;;;3.09;95.13
52441;BME280;39611;46.062;8.950;2023-01-26T02:07:48;96526.91;;;3.05;95.79
52441;BME280;39611;46.062;8.950;2023-01-26T02:10:17;96524.06;;;3.06;95.36
52441;BME280;39611;46.062;8.950;2023-01-26T02:12:50;96519.97;;;2.99;95.18
52441;BME280;39611;46.062;8.950;2023-01-26T02:15:20;96523.44;;;2.93;95.71
52441;BME280;39611;46.062;8.950;2023-01-26T02:17:47;96522.56;;;2.99;95.42
52441;BME280;39611;46.062;8.950;2023-01-26T02:20:19;96520.41;;;3.08;95.53
52441;BME280;39611;46.062;8.950;2023-01-26T02:28:05;96502.13;;;2.96;95.63
52441;BME280;39611;46.062;8.950;2023-01-26T02:30:31;96504.16;;;2.94;94.32
52441;BME280;39611;46.062;8.950;2023-01-26T02:32:58;96501.78;;;3.04;94.68
52441;BME280;39611;46.062;8.950;2023-01-26T02:35:24;96492.34;;;3.03;94.87
52441;BME280;39611;46.062;8.950;2023-01-26T02:37:51;96490.31;;;3.05;94.77
52441;BME280;39611;46.062;8.950;2023-01-26T02:40:25;96487.81;;;2.98;94.20
52441;BME280;39611;46.062;8.950;2023-01-26T02:42:55;96481.88;;;2.91;94.66
52441;BME280;39611;46.062;8.950;2023-01-26T02:45:22;96483.25;;;2.94;95.31
52441;BME280;39611;46.062;8.950;2023-01-26T02:47:50;96477.69;;;3.02;94.78
52441;BME280;39611;46.062;8.950;2023-01-26T02:50:17;96475.06;;;3.02;94.13
52441;BME280;39611;46.062;8.950;2023-01-26T02:52:43;96469.47;;;2.87;94.94
52441;BME280;39611;46.062;8.950;2023-01-26T02:55:10;96479.25;;;2.91;95.19
52441;BME280;39611;46.062;8.950;2023-01-26T02:57:53;96469.50;;;2.98;95.06
52441;BME280;39611;46.062;8.950;2023-01-26T03:00:25;96466.56;;;3.06;94.08
52441;BME280;39611;46.062;8.950;2023-01-26T03:02:54;96465.31;;;3.09;94.05
52441;BME280;39611;46.062;8.950;2023-01-26T03:05:21;96456.13;;;3.06;94.22
52441;BME280;39611;46.062;8.950;2023-01-26T03:07:48;96455.31;;;3.06;93.52
52441;BME280;39611;46.062;8.950;2023-01-26T03:10:14;96456.22;;;3.00;93.38
52441;BME280;39611;46.062;8.950;2023-01-26T03:12:41;96453.25;;;3.08;92.90
52441;BME280;39611;46.062;8.950;2023-01-26T03:15:08;96449.19;;;3.12;92.98
52441;BME280;39611;46.062;8.950;2023-01-26T03:18:04;96443.03;;;3.18;93.49
52441;BME280;39611;46.062;8.950;2023-01-26T03:20:58;96441.47;;;3.17;92.95
52441;BME280;39611;46.062;8.950;2023-01-26T03:23:43;96430.56;;;3.20;93.36
52441;BME280;39611;46.062;8.950;2023-01-26T03:26:28;96429.84;;;3.13;93.75
52441;BME280;39611;46.062;8.950;2023-01-26T03:29:14;96427.34;;;2.95;95.38
52441;BME280;39611;46.062;8.950;2023-01-26T03:31:40;96431.34;;;3.09;95.04
52441;BME280;39611;46.062;8.950;2023-01-26T03:34:07;96429.41;;;3.16;94.67
52441;BME280;39611;46.062;8.950;2023-01-26T03:36:33;96423.28;;;3.22;95.09
52441;BME280;39611;46.062;8.950;2023-01-26T03:38:59;96423.75;;;3.19;94.94
52441;BME280;39611;46.062;8.950;2023-01-26T03:41:26;96428.97;;;3.19;94.88
52441;BME280;39611;46.062;8.950;2023-01-26T03:44:11;96426.47;;;3.24;95.22
52441;BME280;39611;46.062;8.950;2023-01-26T03:46:56;96421.81;;;3.15;95.50
52441;BME280;39611;46.062;8.950;2023-01-26T03:49:41;96423.06;;;3.12;95.42
52441;BME280;39611;46.062;8.950;2023-01-26T03:52:26;96420.09;;;3.20;95.01
52441;BME280;39611;46.062;8.950;2023-01-26T03:55:11;96423.63;;;3.14;94.50
52441;BME280;39611;46.062;8.950;2023-01-26T03:57:56;96426.69;;;3.23;94.03
52441;BME280;39611;46.062;8.950;2023-01-26T04:00:23;96425.31;;;3.20;94.40
52441;BME280;39611;46.062;8.950;2023-01-26T04:02:49;96421.00;;;3.14;94.60
52441;BME280;39611;46.062;8.950;2023-01-26T04:05:34;96418.84;;;3.23;93.59
52441;BME280;39611;46.062;8.950;2023-01-26T04:08:19;96410.66;;;3.31;92.64
52441;BME280;39611;46.062;8.950;2023-01-26T04:10:46;96414.88;;;3.20;93.88
52441;BME280;39611;46.062;8.950;2023-01-26T04:13:12;96409.63;;;3.20;93.82
52441;BME280;39611;46.062;8.950;2023-01-26T04:15:57;96403.59;;;3.32;93.05
52441;BME280;39611;46.062;8.950;2023-01-26T04:18:42;96396.09;;;3.23;93.02
52441;BME280;39611;46.062;8.950;2023-01-26T04:21:27;96397.59;;;3.19;93.68
52441;BME280;39611;46.062;8.950;2023-01-26T04:23:56;96396.91;;;3.12;94.42
52441;BME280;39611;46.062;8.950;2023-01-26T04:26:24;96394.19;;;3.07;95.17
52441;BME280;39611;46.062;8.950;2023-01-26T04:28:51;96378.72;;;3.17;94.48
52441;BME280;39611;46.062;8.950;2023-01-26T04:31:18;96382.34;;;3.16;94.37
52441;BME280;39611;46.062;8.950;2023-01-26T04:33:44;96374.41;;;3.11;94.59
52441;BME280;39611;46.062;8.950;2023-01-26T04:36:10;96373.97;;;3.14;94.42
52441;BME280;39611;46.062;8.950;2023-01-26T04:38:37;96371.25;;;3.09;94.10
52441;BME280;39611;46.062;8.950;2023-01-26T04:41:03;96362.13;;;3.23;92.14
52441;BME280;39611;46.062;8.950;2023-01-26T04:43:30;96365.31;;;3.25;92.36
52441;BME280;39611;46.062;8.950;2023-01-26T04:46:01;96369.06;;;3.30;93.09
52441;BME280;39611;46.062;8.950;2023-01-26T04:48:29;96370.22;;;3.22;93.84
52441;BME280;39611;46.062;8.950;2023-01-26T04:50:58;96371.47;;;3.19;93.33
52441;BME280;39611;46.062;8.950;2023-01-26T04:53:25;96356.09;;;3.23;93.34
52441;BME280;39611;46.062;8.950;2023-01-26T04:55:52;96363.50;;;3.14;93.78
52441;BME280;39611;46.062;8.950;2023-01-26T04:58:19;96353.16;;;3.19;93.09
52441;BME280;39611;46.062;8.950;2023-01-26T05:00:53;96367.91;;;3.14;93.42
52441;BME280;39611;46.062;8.950;2023-01-26T05:03:21;96361.13;;;3.13;92.63
52441;BME280;39611;46.062;8.950;2023-01-26T05:05:49;96358.72;;;3.23;91.65
52441;BME280;39611;46.062;8.950;2023-01-26T05:08:17;96359.06;;;3.26;92.28
52441;BME280;39611;46.062;8.950;2023-01-26T05:10:44;96356.91;;;3.23;92.33
52441;BME280;39611;46.062;8.950;2023-01-26T05:13:11;96355.88;;;3.24;90.77
52441;BME280;39611;46.062;8.950;2023-01-26T05:15:38;96359.41;;;3.18;91.33
52441;BME280;39611;46.062;8.950;2023-01-26T05:18:05;96356.91;;;3.23;90.10
52441;BME280;39611;46.062;8.950;2023-01-26T05:20:32;96346.78;;;3.27;90.93
52441;BME280;39611;46.062;8.950;2023-01-26T05:22:58;96347.94;;;3.19;91.12
52441;BME280;39611;46.062;8.950;2023-01-26T05:25:25;96342.47;;;3.21;90.81
52441;BME280;39611;46.062;8.950;2023-01-26T05:27:51;96338.94;;;3.27;90.38
52441;BME280;39611;46.062;8.950;2023-01-26T05:30:19;96347.38;;;3.17;90.77
52441;BME280;39611;46.062;8.950;2023-01-26T05:32:45;96344.88;;;3.22;90.48
52441;BME280;39611;46.062;8.950;2023-01-26T05:35:12;96344.06;;;3.22;91.52
52441;BME280;39611;46.062;8.950;2023-01-26T05:37:38;96347.69;;;3.21;90.46
52441;BME280;39611;46.062;8.950;2023-01-26T05:40:08;96340.22;;;3.24;90.37
52441;BME280;39611;46.062;8.950;2023-01-26T05:42:36;96345.44;;;3.13;90.88
52441;BME280;39611;46.062;8.950;2023-01-26T05:45:03;96350.34;;;3.09;90.66
52441;BME280;39611;46.062;8.950;2023-01-26T05:47:30;96348.38;;;3.16;90.21
52441;BME280;39611;46.062;8.950;2023-01-26T05:49:57;96351.91;;;3.22;90.95
52441;BME280;39611;46.062;8.950;2023-01-26T05:52:23;96355.88;;;3.13;89.68
52441;BME280;39611;46.062;8.950;2023-01-26T05:54:49;96347.59;;;3.27;87.02
52441;BME280;39611;46.062;8.950;2023-01-26T05:57:16;96334.28;;;3.29;89.01
52441;BME280;39611;46.062;8.950;2023-01-26T05:59:42;96338.03;;;3.21;90.92
52441;BME280;39611;46.062;8.950;2023-01-26T06:02:12;96348.47;;;3.21;91.79
52441;BME280;39611;46.062;8.950;2023-01-26T06:04:38;96350.41;;;3.26;91.55
52441;BME280;39611;46.062;8.950;2023-01-26T06:07:05;96350.78;;;3.30;91.28
52441;BME280;39611;46.062;8.950;2023-01-26T06:09:32;96348.38;;;3.28;91.30
52441;BME280;39611;46.062;8.950;2023-01-26T06:11:58;96348.47;;;3.21;91.22
52441;BME280;39611;46.062;8.950;2023-01-26T06:14:24;96347.34;;;3.29;90.75
52441;BME280;39611;46.062;8.950;2023-01-26T06:16:51;96346.78;;;3.15;91.79
52441;BME280;39611;46.062;8.950;2023-01-26T06:19:19;96346.56;;;3.17;91.94
52441;BME280;39611;46.062;8.950;2023-01-26T06:21:45;96340.63;;;3.21;90.56
52441;BME280;39611;46.062;8.950;2023-01-26T06:24:12;96343.81;;;3.23;89.64
52441;BME280;39611;46.062;8.950;2023-01-26T06:26:38;96339.84;;;3.33;89.75
52441;BME280;39611;46.062;8.950;2023-01-26T06:29:05;96335.53;;;3.26;90.74
52441;BME280;39611;46.062;8.950;2023-01-26T06:31:35;96337.03;;;3.22;90.21
52441;BME280;39611;46.062;8.950;2023-01-26T06:34:01;96324.53;;;3.24;89.91
52441;BME280;39611;46.062;8.950;2023-01-26T06:36:28;96330.75;;;3.23;89.39
52441;BME280;39611;46.062;8.950;2023-01-26T06:38:54;96329.19;;;3.22;90.50
52441;BME280;39611;46.062;8.950;2023-01-26T06:41:22;96328.72;;;3.14;89.72
52441;BME280;39611;46.062;8.950;2023-01-26T06:43:49;96329.75;;;3.13;89.90
52441;BME280;39611;46.062;8.950;2023-01-26T06:46:16;96336.56;;;3.14;90.10
52441;BME280;39611;46.062;8.950;2023-01-26T06:48:43;96331.31;;;3.14;90.65
52441;BME280;39611;46.062;8.950;2023-01-26T06:53:55;96326.00;;;3.20;89.76
52441;BME280;39611;46.062;8.950;2023-01-26T06:56:23;96327.56;;;3.21;90.05
52441;BME280;39611;46.062;8.950;2023-01-26T06:58:50;96327.34;;;3.23;89.84
52441;BME280;39611;46.062;8.950;2023-01-26T07:01:41;96327.47;;;3.16;90.50
52441;BME280;39611;46.062;8.950;2023-01-26T07:04:08;96324.84;;;3.16;90.50
52441;BME280;39611;46.062;8.950;2023-01-26T07:06:35;96327.72;;;3.15;89.96
52441;BME280;39611;46.062;8.950;2023-01-26T07:09:01;96323.72;;;3.12;89.08
52441;BME280;39611;46.062;8.950;2023-01-26T07:11:28;96321.13;;;3.12;88.47
52441;BME280;39611;46.062;8.950;2023-01-26T07:13:56;96322.91;;;3.23;85.53
52441;BME280;39611;46.062;8.950;2023-01-26T07:16:22;96328.59;;;3.32;86.79
52441;BME280;39611;46.062;8.950;2023-01-26T07:18:49;96326.88;;;3.38;87.37
52441;BME280;39611;46.062;8.950;2023-01-26T07:21:17;96327.78;;;3.32;87.74
52441;BME280;39611;46.062;8.950;2023-01-26T07:23:45;96320.09;;;3.25;87.08
52441;BME280;39611;46.062;8.950;2023-01-26T07:26:12;96321.66;;;3.26;87.98
52441;BME280;39611;46.062;8.950;2023-01-26T07:28:39;96320.31;;;3.23;88.58
52441;BME280;39611;46.062;8.950;2023-01-26T07:31:06;96323.16;;;3.10;89.09
52441;BME280;39611;46.062;8.950;2023-01-26T07:33:33;96319.03;;;3.26;87.72
52441;BME280;39611;46.062;8.950;2023-01-26T07:36:00;96320.97;;;3.31;87.41
52441;BME280;39611;46.062;8.950;2023-01-26T07:38:27;96318.03;;;3.27;87.53
52441;BME280;39611;46.062;8.950;2023-01-26T07:40:54;96322.75;;;3.42;86.54
52441;BME280;39611;46.062;8.950;2023-01-26T07:43:21;96323.38;;;3.32;86.68
52441;BME280;39611;46.062;8.950;2023-01-26T07:45:50;96318.47;;;3.36;85.85
52441;BME280;39611;46.062;8.950;2023-01-26T07:48:18;96315.38;;;3.39;88.37
52441;BME280;39611;46.062;8.950;2023-01-26T07:50:46;96324.03;;;3.39;88.57
52441;BME280;39611;46.062;8.950;2023-01-26T07:53:13;96320.63;;;3.39;89.19
52441;BME280;39611;46.062;8.950;2023-01-26T07:55:40;96315.28;;;3.34;89.41
52441;BME280;39611;46.062;8.950;2023-01-26T07:58:11;96321.19;;;3.41;89.55
52441;BME280;39611;46.062;8.950;2023-01-26T08:00:38;96315.38;;;3.50;89.02
52441;BME280;39611;46.062;8.950;2023-01-26T08:03:05;96315.97;;;3.41;89.53
52441;BME280;39611;46.062;8.950;2023-01-26T08:05:32;96311.06;;;3.44;89.06
52441;BME280;39611;46.062;8.950;2023-01-26T08:07:59;96312.75;;;3.50;89.27
52441;BME280;39611;46.062;8.950;2023-01-26T08:10:27;96315.69;;;3.54;89.43
52441;BME280;39611;46.062;8.950;2023-01-26T08:13:00;96318.78;;;3.51;89.65
52441;BME280;39611;46.062;8.950;2023-01-26T08:15:27;96312.50;;;3.52;87.60
52441;BME280;39611;46.062;8.950;2023-01-26T08:17:54;96308.41;;;3.56;88.90
52441;BME280;39611;46.062;8.950;2023-01-26T08:20:21;96304.53;;;3.59;87.95
52441;BME280;39611;46.062;8.950;2023-01-26T08:22:48;96312.16;;;3.60;87.12
52441;BME280;39611;46.062;8.950;2023-01-26T08:25:14;96311.13;;;3.61;87.21
52441;BME280;39611;46.062;8.950;2023-01-26T08:27:41;96312.72;;;3.62;86.89
52441;BME280;39611;46.062;8.950;2023-01-26T08:30:08;96321.91;;;3.65;86.31
52441;BME280;39611;46.062;8.950;2023-01-26T08:32:36;96316.31;;;3.73;83.97
52441;BME280;39611;46.062;8.950;2023-01-26T08:35:03;96320.19;;;3.70;82.43
52441;BME280;39611;46.062;8.950;2023-01-26T08:37:30;96316.00;;;3.69;83.40
52441;BME280;39611;46.062;8.950;2023-01-26T08:39:56;96316.09;;;3.75;82.69
52441;BME280;39611;46.062;8.950;2023-01-26T08:42:23;96315.59;;;3.89;82.32
52441;BME280;39611;46.062;8.950;2023-01-26T08:44:50;96313.09;;;3.83;79.55
52441;BME280;39611;46.062;8.950;2023-01-26T08:47:17;96312.16;;;3.89;80.21
52441;BME280;39611;46.062;8.950;2023-01-26T08:49:44;96313.28;;;3.93;80.94
52441;BME280;39611;46.062;8.950;2023-01-26T08:52:11;96310.44;;;3.94;79.67
52441;BME280;39611;46.062;8.950;2023-01-26T08:54:37;96314.06;;;3.93;80.36
52441;BME280;39611;46.062;8.950;2023-01-26T08:57:04;96318.06;;;3.96;78.65
52441;BME280;39611;46.062;8.950;2023-01-26T08:59:30;96313.34;;;4.10;77.91
52441;BME280;39611;46.062;8.950;2023-01-26T09:01:57;96303.31;;;4.07;76.77
52441;BME280;39611;46.062;8.950;2023-01-26T09:04:24;96302.53;;;4.06;77.59
52441;BME280;39611;46.062;8.950;2023-01-26T09:06:53;96306.69;;;4.19;75.89
52441;BME280;39611;46.062;8.950;2023-01-26T09:09:19;96304.22;;;4.29;77.53
52441;BME280;39611;46.062;8.950;2023-01-26T09:11:46;96300.19;;;4.22;76.33
52441;BME280;39611;46.062;8.950;2023-01-26T09:14:13;96303.28;;;4.19;74.86
52441;BME280;39611;46.062;8.950;2023-01-26T09:16:39;96303.34;;;4.24;74.65
52441;BME280;39611;46.062;8.950;2023-01-26T09:19:06;96298.28;;;4.34;74.31
52441;BME280;39611;46.062;8.950;2023-01-26T09:21:32;96301.22;;;4.37;73.70
52441;BME280;39611;46.062;8.950;2023-01-26T09:23:59;96303.53;;;4.34;77.86
52441;BME280;39611;46.062;8.950;2023-01-26T09:26:25;96295.09;;;4.32;78.32
52441;BME280;39611;46.062;8.950;2023-01-26T09:28:52;96305.44;;;4.38;75.55
52441;BME280;39611;46.062;8.950;2023-01-26T09:31:19;96306.72;;;4.36;72.29
52441;BME280;39611;46.062;8.950;2023-01-26T09:33:50;96305.28;;;4.45;73.50
52441;BME280;39611;46.062;8.950;2023-01-26T09:36:17;96305.84;;;4.47;72.68
52441;BME280;39611;46.062;8.950;2023-01-26T09:38:43;96298.47;;;4.44;72.29
52441;BME280;39611;46.062;8.950;2023-01-26T09:41:42;96300.59;;;4.47;74.72
52441;BME280;39611;46.062;8.950;2023-01-26T09:44:25;96308.59;;;4.41;74.93
52441;BME280;39611;46.062;8.950;2023-01-26T09:47:24;96304.78;;;4.48;74.26
52441;BME280;39611;46.062;8.950;2023-01-26T09:50:32;96301.91;;;4.33;76.15
52441;BME280;39611;46.062;8.950;2023-01-26T09:53:05;96302.97;;;4.32;74.56
52441;BME280;39611;46.062;8.950;2023-01-26T09:55:32;96305.03;;;4.30;71.73
52441;BME280;39611;46.062;8.950;2023-01-26T09:58:02;96305.50;;;4.27;72.40
52441;BME280;39611;46.062;8.950;2023-01-26T10:00:48;96302.09;;;4.26;68.69
52441;BME280;39611;46.062;8.950;2023-01-26T10:03:25;96306.63;;;4.31;70.55
52441;BME280;39611;46.062;8.950;2023-01-26T10:08:21;96293.63;;;4.36;68.93
52441;BME280;39611;46.062;8.950;2023-01-26T10:10:53;96293.22;;;4.44;69.31
52441;BME280;39611;46.062;8.950;2023-01-26T10:13:21;96290.53;;;4.39;69.11
52441;BME280;39611;46.062;8.950;2023-01-26T10:15:57;96289.00;;;4.43;67.40
52441;BME280;39611;46.062;8.950;2023-01-26T10:19:08;96270.34;;;4.56;66.76
52441;BME280;39611;46.062;8.950;2023-01-26T10:21:35;96276.22;;;4.64;66.46
52441;BME280;39611;46.062;8.950;2023-01-26T10:24:03;96278.91;;;4.69;65.89
52441;BME280;39611;46.062;8.950;2023-01-26T10:26:32;96275.09;;;4.76;66.16
52441;BME280;39611;46.062;8.950;2023-01-26T10:28:59;96266.38;;;4.71;65.07
52441;BME280;39611;46.062;8.950;2023-01-26T10:31:31;96263.25;;;4.74;65.51
52441;BME280;39611;46.062;8.950;2023-01-26T10:34:01;96260.78;;;4.84;64.81
52441;BME280;39611;46.062;8.950;2023-01-26T10:36:34;96255.53;;;4.84;66.29
52441;BME280;39611;46.062;8.950;2023-01-26T10:39:06;96253.41;;;4.81;64.78
52441;BME280;39611;46.062;8.950;2023-01-26T10:41:32;96258.59;;;4.76;63.65
52441;BME280;39611;46.062;8.950;2023-01-26T10:46:39;96240.00;;;4.77;64.62
52441;BME280;39611;46.062;8.950;2023-01-26T10:51:35;96237.25;;;4.89;64.96
52441;BME280;39611;46.062;8.950;2023-01-26T10:54:24;96231.88;;;4.96;65.46
52441;BME280;39611;46.062;8.950;2023-01-26T10:59:34;96225.00;;;4.95;63.84
52441;BME280;39611;46.062;8.950;2023-01-26T11:04:37;96211.41;;;4.76;63.79
52441;BME280;39611;46.062;8.950;2023-01-26T11:07:26;96209.22;;;4.90;64.72
52441;BME280;39611;46.062;8.950;2023-01-26T11:09:53;96202.78;;;4.97;65.84
52441;BME280;39611;46.062;8.950;2023-01-26T11:12:23;96201.19;;;4.96;64.20
52441;BME280;39611;46.062;8.950;2023-01-26T11:15:21;96193.41;;;5.01;65.11
52441;BME280;39611;46.062;8.950;2023-01-26T11:18:00;96199.66;;;5.00;64.60
52441;BME280;39611;46.062;8.950;2023-01-26T11:23:26;96181.25;;;5.17;63.84
52441;BME280;39611;46.062;8.950;2023-01-26T11:32:20;96159.13;;;5.08;65.61
52441;BME280;39611;46.062;8.950;2023-01-26T11:38:50;96163.63;;;5.35;64.81
52441;BME280;39611;46.062;8.950;2023-01-26T11:41:06;96163.56;;;5.30;65.06
52441;BME280;39611;46.062;8.950;2023-01-26T11:43:53;96150.00;;;5.38;64.29
52441;BME280;39611;46.062;8.950;2023-01-26T11:46:43;96151.94;;;5.47;64.82
52441;BME280;39611;46.062;8.950;2023-01-26T11:52:42;96144.50;;;5.39;63.92
52441;BME280;39611;46.062;8.950;2023-01-26T11:58:34;96126.72;;;5.46;64.60
52441;BME280;39611;46.062;8.950;2023-01-26T12:01:06;96127.78;;;5.45;64.80
52441;BME280;39611;46.062;8.950;2023-01-26T12:03:43;96112.03;;;5.45;65.39
52441;BME280;39611;46.062;8.950;2023-01-26T12:06:31;96109.47;;;5.51;65.25
52441;BME280;39611;46.062;8.950;2023-01-26T12:09:04;96110.00;;;5.53;65.57
52441;BME280;39611;46.062;8.950;2023-01-26T12:11:47;96098.88;;;5.40;65.66
52441;BME280;39611;46.062;8.950;2023-01-26T12:16:58;96104.13;;;5.40;65.55
52441;BME280;39611;46.062;8.950;2023-01-26T12:22:44;96087.84;;;5.38;65.07
52441;BME280;39611;46.062;8.950;2023-01-26T12:27:56;96075.34;;;5.51;64.79
52441;BME280;39611;46.062;8.950;2023-01-26T12:30:30;96072.47;;;5.52;64.56
52441;BME280;39611;46.062;8.950;2023-01-26T12:32:59;96070.19;;;5.61;63.88
52441;BME280;39611;46.062;8.950;2023-01-26T12:41:02;96053.34;;;5.57;64.23
52441;BME280;39611;46.062;8.950;2023-01-26T12:43:42;96047.03;;;5.53;64.33
52441;BME280;39611;46.062;8.950;2023-01-26T12:46:13;96041.84;;;5.58;63.25
52441;BME280;39611;46.062;8.950;2023-01-26T12:48:45;96029.19;;;5.55;63.20
52441;BME280;39611;46.062;8.950;2023-01-26T12:51:28;96029.78;;;5.62;63.25
52441;BME280;39611;46.062;8.950;2023-01-26T12:54:07;96018.78;;;5.65;63.79
52441;BME280;39611;46.062;8.950;2023-01-26T12:56:49;96018.47;;;5.56;63.47
52441;BME280;39611;46.062;8.950;2023-01-26T12:59:23;96016.94;;;5.65;63.82
52441;BME280;39611;46.062;8.950;2023-01-26T13:02:25;96017.75;;;5.66;64.20
52441;BME280;39611;46.062;8.950;2023-01-26T13:04:53;96010.19;;;5.75;64.28
52441;BME280;39611;46.062;8.950;2023-01-26T13:07:38;96006.78;;;5.74;64.43
52441;BME280;39611;46.062;8.950;2023-01-26T13:12:59;95999.63;;;5.64;63.54
52441;BME280;39611;46.062;8.950;2023-01-26T13:15:28;95995.78;;;5.77;63.89
52441;BME280;39611;46.062;8.950;2023-01-26T13:18:03;95996.00;;;5.76;63.94
52441;BME280;39611;46.062;8.950;2023-01-26T13:26:54;95986.88;;;5.83;64.85
52441;BME280;39611;46.062;8.950;2023-01-26T13:29:32;95980.88;;;5.88;64.36
52441;BME280;39611;46.062;8.950;2023-01-26T13:34:42;95975.91;;;5.91;64.32
52441;BME280;39611;46.062;8.950;2023-01-26T13:37:26;95967.94;;;5.76;64.66
52441;BME280;39611;46.062;8.950;2023-01-26T13:40:03;95959.09;;;5.87;63.83
52441;BME280;39611;46.062;8.950;2023-01-26T13:42:36;95960.94;;;5.92;64.40
52441;BME280;39611;46.062;8.950;2023-01-26T13:45:13;95955.13;;;5.85;65.17
52441;BME280;39611;46.062;8.950;2023-01-26T13:47:44;95954.38;;;5.89;64.16
52441;BME280;39611;46.062;8.950;2023-01-26T13:50:34;95947.81;;;5.92;64.63
52441;BME280;39611;46.062;8.950;2023-01-26T13:53:31;95956.72;;;5.91;65.54
52441;BME280;39611;46.062;8.950;2023-01-26T13:55:59;95954.91;;;5.91;63.80
52441;BME280;39611;46.062;8.950;2023-01-26T13:58:27;95959.69;;;5.95;64.67
52441;BME280;39611;46.062;8.950;2023-01-26T14:00:58;95955.94;;;5.90;64.42
52441;BME280;39611;46.062;8.950;2023-01-26T14:03:25;95956.00;;;5.96;63.72
52441;BME280;39611;46.062;8.950;2023-01-26T14:08:23;95954.44;;;5.95;64.43
52441;BME280;39611;46.062;8.950;2023-01-26T14:10:50;95958.63;;;5.96;65.08
52441;BME280;39611;46.062;8.950;2023-01-26T14:13:32;95958.56;;;5.90;64.73
52441;BME280;39611;46.062;8.950;2023-01-26T14:16:01;95957.78;;;5.90;65.05
52441;BME280;39611;46.062;8.950;2023-01-26T14:18:30;95961.47;;;5.89;64.61
52441;BME280;39611;46.062;8.950;2023-01-26T14:21:17;95954.09;;;5.91;64.57
52441;BME280;39611;46.062;8.950;2023-01-26T14:23:44;95957.50;;;5.86;65.09
52441;BME280;39611;46.062;8.950;2023-01-26T14:26:18;95958.56;;;5.90;64.84
52441;BME280;39611;46.062;8.950;2023-01-26T14:28:45;95949.63;;;5.86;64.91
52441;BME280;39611;46.062;8.950;2023-01-26T14:31:20;95964.31;;;5.82;66.02
52441;BME280;39611;46.062;8.950;2023-01-26T14:33:50;95957.47;;;5.81;65.55
52441;BME280;39611;46.062;8.950;2023-01-26T14:36:19;95956.69;;;5.86;64.97
52441;BME280;39611;46.062;8.950;2023-01-26T14:38:48;95953.84;;;5.87;65.27